sensor_id;sensor_type;location;lat;lon;timestamp;temperature;humidity
18281;DHT22;9266;51.132;17.062;2023-10-31T00:00:44;14.70;99.90
18281;DHT22;9266;51.132;17.062;2023-10-31T00:03:12;14.70;99.90
18281;DHT22;9266;51.132;17.062;2023-10-31T00:05:39;14.70;99.90
18281;DHT22;9266;51.132;17.062;2023-10-31T00:08:06;14.70;99.90
18281;DHT22;9266;51.132;17.062;2023-10-31T00:10:33;14.70;99.90
18281;DHT22;9266;51.132;17.062;2023-10-31T00:13:00;14.80;99.90
18281;DHT22;9266;51.132;17.062;2023-10-31T00:15:27;14.80;99.90
18281;DHT22;9266;51.132;17.062;2023-10-31T00:17:56;14.90;99.90
18281;DHT22;9266;51.132;17.062;2023-10-31T00:20:24;14.90;99.90
18281;DHT22;9266;51.132;17.062;2023-10-31T00:22:51;14.90;99.90
18281;DHT22;9266;51.132;17.062;2023-10-31T00:25:18;14.90;99.90
18281;DHT22;9266;51.132;17.062;2023-10-31T00:27:45;14.90;99.90
18281;DHT22;9266;51.132;17.062;2023-10-31T00:30:12;14.90;99.90
18281;DHT22;9266;51.132;17.062;2023-10-31T00:32:39;14.80;99.90
18281;DHT22;9266;51.132;17.062;2023-10-31T00:35:07;14.80;99.90
18281;DHT22;9266;51.132;17.062;2023-10-31T00:37:35;14.80;99.90
18281;DHT22;9266;51.132;17.062;2023-10-31T00:40:02;14.80;99.90
18281;DHT22;9266;51.132;17.062;2023-10-31T00:42:29;14.70;99.90
18281;DHT22;9266;51.132;17.062;2023-10-31T00:44:56;14.70;99.90
18281;DHT22;9266;51.132;17.062;2023-10-31T00:47:23;14.70;99.90
18281;DHT22;9266;51.132;17.062;2023-10-31T00:49:50;14.70;99.90
18281;DHT22;9266;51.132;17.062;2023-10-31T00:52:18;14.70;99.90
18281;DHT22;9266;51.132;17.062;2023-10-31T00:54:47;14.70;99.90
18281;DHT22;9266;51.132;17.062;2023-10-31T00:57:13;14.70;99.90
18281;DHT22;9266;51.132;17.062;2023-10-31T00:59:40;14.70;99.90
18281;DHT22;9266;51.132;17.062;2023-10-31T01:02:08;14.70;99.90
18281;DHT22;9266;51.132;17.062;2023-10-31T01:04:36;14.70;99.90
18281;DHT22;9266;51.132;17.062;2023-10-31T01:07:03;14.70;99.90
18281;DHT22;9266;51.132;17.062;2023-10-31T01:09:30;14.70;99.90
18281;DHT22;9266;51.132;17.062;2023-10-31T01:11:58;14.70;99.90
18281;DHT22;9266;51.132;17.062;2023-10-31T01:14:25;14.70;99.90
18281;DHT22;9266;51.132;17.062;2023-10-31T01:16:52;14.70;99.90
18281;DHT22;9266;51.132;17.062;2023-10-31T01:19:19;14.70;99.90
18281;DHT22;9266;51.132;17.062;2023-10-31T01:21:46;14.80;99.90
18281;DHT22;9266;51.132;17.062;2023-10-31T01:24:13;14.70;99.90
18281;DHT22;9266;51.132;17.062;2023-10-31T01:26:40;14.60;99.90
18281;DHT22;9266;51.132;17.062;2023-10-31T01:29:08;14.60;99.90
18281;DHT22;9266;51.132;17.062;2023-10-31T01:31:35;14.50;99.90
18281;DHT22;9266;51.132;17.062;2023-10-31T01:34:03;14.60;99.90
18281;DHT22;9266;51.132;17.062;2023-10-31T01:36:30;14.70;99.90
18281;DHT22;9266;51.132;17.062;2023-10-31T01:38:56;14.70;99.90
18281;DHT22;9266;51.132;17.062;2023-10-31T01:41:24;14.70;99.90
18281;DHT22;9266;51.132;17.062;2023-10-31T01:43:51;14.70;99.90
18281;DHT22;9266;51.132;17.062;2023-10-31T01:46:19;14.70;99.90
18281;DHT22;9266;51.132;17.062;2023-10-31T01:48:46;14.70;99.90
18281;DHT22;9266;51.132;17.062;2023-10-31T01:51:14;14.70;99.90
18281;DHT22;9266;51.132;17.062;2023-10-31T01:53:41;14.70;99.90
18281;DHT22;9266;51.132;17.062;2023-10-31T01:56:08;14.60;99.90
18281;DHT22;9266;51.132;17.062;2023-10-31T01:58:36;14.60;99.90
18281;DHT22;9266;51.132;17.062;2023-10-31T02:01:04;14.50;99.90
18281;DHT22;9266;51.132;17.062;2023-10-31T02:03:34;14.60;99.90
18281;DHT22;9266;51.132;17.062;2023-10-31T02:06:01;14.70;99.90
18281;DHT22;9266;51.132;17.062;2023-10-31T02:08:28;14.80;99.90
18281;DHT22;9266;51.132;17.062;2023-10-31T02:10:55;14.80;99.90
18281;DHT22;9266;51.132;17.062;2023-10-31T02:13:22;14.80;99.90
18281;DHT22;9266;51.132;17.062;2023-10-31T02:15:49;14.80;99.90
18281;DHT22;9266;51.132;17.062;2023-10-31T02:18:16;14.80;99.90
18281;DHT22;9266;51.132;17.062;2023-10-31T02:20:44;14.80;99.90
18281;DHT22;9266;51.132;17.062;2023-10-31T02:23:15;14.80;99.90
18281;DHT22;9266;51.132;17.062;2023-10-31T02:25:42;14.80;99.90
18281;DHT22;9266;51.132;17.062;2023-10-31T02:28:09;14.80;99.90
18281;DHT22;9266;51.132;17.062;2023-10-31T02:30:36;14.80;99.90
18281;DHT22;9266;51.132;17.062;2023-10-31T02:33:03;14.90;99.90
18281;DHT22;9266;51.132;17.062;2023-10-31T02:35:30;14.90;99.90
18281;DHT22;9266;51.132;17.062;2023-10-31T02:37:58;14.80;99.90
18281;DHT22;9266;51.132;17.062;2023-10-31T02:40:26;14.80;99.90
18281;DHT22;9266;51.132;17.062;2023-10-31T02:42:53;14.70;99.90
18281;DHT22;9266;51.132;17.062;2023-10-31T02:45:20;14.80;99.90
18281;DHT22;9266;51.132;17.062;2023-10-31T02:47:47;14.70;99.90
18281;DHT22;9266;51.132;17.062;2023-10-31T02:50:14;14.60;99.90
18281;DHT22;9266;51.132;17.062;2023-10-31T02:52:41;14.60;99.90
18281;DHT22;9266;51.132;17.062;2023-10-31T02:55:08;14.50;99.90
18281;DHT22;9266;51.132;17.062;2023-10-31T02:57:36;14.50;99.90
18281;DHT22;9266;51.132;17.062;2023-10-31T03:00:04;14.40;99.90
18281;DHT22;9266;51.132;17.062;2023-10-31T03:02:31;14.40;99.90
18281;DHT22;9266;51.132;17.062;2023-10-31T03:04:58;14.30;99.90
18281;DHT22;9266;51.132;17.062;2023-10-31T03:07:25;14.30;99.90
18281;DHT22;9266;51.132;17.062;2023-10-31T03:09:53;14.30;99.90
18281;DHT22;9266;51.132;17.062;2023-10-31T03:12:20;14.20;99.90
18281;DHT22;9266;51.132;17.062;2023-10-31T03:14:48;14.20;99.90
18281;DHT22;9266;51.132;17.062;2023-10-31T03:17:15;14.20;99.90
18281;DHT22;9266;51.132;17.062;2023-10-31T03:19:42;14.20;99.90
18281;DHT22;9266;51.132;17.062;2023-10-31T03:22:09;14.20;99.90
18281;DHT22;9266;51.132;17.062;2023-10-31T03:24:36;14.20;99.90
18281;DHT22;9266;51.132;17.062;2023-10-31T03:27:03;14.20;99.90
18281;DHT22;9266;51.132;17.062;2023-10-31T03:29:30;14.20;99.90
18281;DHT22;9266;51.132;17.062;2023-10-31T03:31:58;14.20;99.90
18281;DHT22;9266;51.132;17.062;2023-10-31T03:34:25;14.20;99.90
18281;DHT22;9266;51.132;17.062;2023-10-31T03:36:52;14.20;99.90
18281;DHT22;9266;51.132;17.062;2023-10-31T03:39:19;14.20;99.90
18281;DHT22;9266;51.132;17.062;2023-10-31T03:41:46;14.30;99.90
18281;DHT22;9266;51.132;17.062;2023-10-31T03:44:13;14.40;99.90
18281;DHT22;9266;51.132;17.062;2023-10-31T03:46:40;14.40;99.90
18281;DHT22;9266;51.132;17.062;2023-10-31T03:49:08;14.40;99.90
18281;DHT22;9266;51.132;17.062;2023-10-31T03:51:35;14.70;99.90
18281;DHT22;9266;51.132;17.062;2023-10-31T03:54:02;14.60;99.90
18281;DHT22;9266;51.132;17.062;2023-10-31T03:56:29;14.60;99.90
18281;DHT22;9266;51.132;17.062;2023-10-31T03:58:56;14.50;99.90
18281;DHT22;9266;51.132;17.062;2023-10-31T04:01:23;14.40;99.90
18281;DHT22;9266;51.132;17.062;2023-10-31T04:03:50;14.30;99.90
18281;DHT22;9266;51.132;17.062;2023-10-31T04:06:19;14.30;99.90
18281;DHT22;9266;51.132;17.062;2023-10-31T04:08:45;14.20;99.90
18281;DHT22;9266;51.132;17.062;2023-10-31T04:11:11;14.20;99.90
18281;DHT22;9266;51.132;17.062;2023-10-31T04:13:38;14.30;99.90
18281;DHT22;9266;51.132;17.062;2023-10-31T04:16:06;14.40;99.90
18281;DHT22;9266;51.132;17.062;2023-10-31T04:18:33;14.50;99.90
18281;DHT22;9266;51.132;17.062;2023-10-31T04:21:00;14.70;99.90
18281;DHT22;9266;51.132;17.062;2023-10-31T04:23:28;14.80;99.90
18281;DHT22;9266;51.132;17.062;2023-10-31T04:25:55;14.90;99.90
18281;DHT22;9266;51.132;17.062;2023-10-31T04:28:22;15.00;99.90
18281;DHT22;9266;51.132;17.062;2023-10-31T04:30:49;15.00;99.90
18281;DHT22;9266;51.132;17.062;2023-10-31T04:33:16;15.00;99.90
18281;DHT22;9266;51.132;17.062;2023-10-31T04:35:43;15.10;99.90
18281;DHT22;9266;51.132;17.062;2023-10-31T04:38:10;15.10;99.90
18281;DHT22;9266;51.132;17.062;2023-10-31T04:40:38;15.00;99.90
18281;DHT22;9266;51.132;17.062;2023-10-31T04:43:05;15.00;99.90
18281;DHT22;9266;51.132;17.062;2023-10-31T04:45:32;15.00;99.90
18281;DHT22;9266;51.132;17.062;2023-10-31T04:47:59;15.10;99.90
18281;DHT22;9266;51.132;17.062;2023-10-31T04:50:26;15.10;99.90
18281;DHT22;9266;51.132;17.062;2023-10-31T04:52:53;15.20;99.90
18281;DHT22;9266;51.132;17.062;2023-10-31T04:55:20;15.30;64.90
18281;DHT22;9266;51.132;17.062;2023-10-31T04:57:48;15.50;1.00
18281;DHT22;9266;51.132;17.062;2023-10-31T05:00:15;15.50;31.50
18281;DHT22;9266;51.132;17.062;2023-10-31T05:02:42;15.60;99.90
18281;DHT22;9266;51.132;17.062;2023-10-31T05:05:09;15.60;99.90
18281;DHT22;9266;51.132;17.062;2023-10-31T05:07:36;15.70;1.00
18281;DHT22;9266;51.132;17.062;2023-10-31T05:10:04;15.80;1.00
18281;DHT22;9266;51.132;17.062;2023-10-31T05:12:31;16.00;1.00
18281;DHT22;9266;51.132;17.062;2023-10-31T05:14:59;16.10;1.00
18281;DHT22;9266;51.132;17.062;2023-10-31T05:17:26;16.20;99.90
18281;DHT22;9266;51.132;17.062;2023-10-31T05:19:53;16.20;99.90
18281;DHT22;9266;51.132;17.062;2023-10-31T05:22:20;16.30;1.00
18281;DHT22;9266;51.132;17.062;2023-10-31T05:24:47;16.30;1.00
18281;DHT22;9266;51.132;17.062;2023-10-31T05:27:14;16.40;1.00
18281;DHT22;9266;51.132;17.062;2023-10-31T05:29:41;16.50;1.00
18281;DHT22;9266;51.132;17.062;2023-10-31T05:32:09;16.50;1.00
18281;DHT22;9266;51.132;17.062;2023-10-31T05:34:36;16.30;99.90
18281;DHT22;9266;51.132;17.062;2023-10-31T05:37:03;16.10;1.00
18281;DHT22;9266;51.132;17.062;2023-10-31T05:39:31;15.90;1.00
18281;DHT22;9266;51.132;17.062;2023-10-31T05:41:58;15.70;99.90
18281;DHT22;9266;51.132;17.062;2023-10-31T05:44:25;15.60;8.90
18281;DHT22;9266;51.132;17.062;2023-10-31T05:46:52;15.50;1.00
18281;DHT22;9266;51.132;17.062;2023-10-31T05:49:21;15.40;1.00
18281;DHT22;9266;51.132;17.062;2023-10-31T05:51:50;15.30;1.00
18281;DHT22;9266;51.132;17.062;2023-10-31T05:54:17;15.20;99.90
18281;DHT22;9266;51.132;17.062;2023-10-31T05:56:44;15.20;99.90
18281;DHT22;9266;51.132;17.062;2023-10-31T05:59:12;15.10;1.00
18281;DHT22;9266;51.132;17.062;2023-10-31T06:01:39;15.00;1.00
18281;DHT22;9266;51.132;17.062;2023-10-31T06:04:06;15.00;1.00
18281;DHT22;9266;51.132;17.062;2023-10-31T06:06:37;14.90;16.50
18281;DHT22;9266;51.132;17.062;2023-10-31T06:09:05;14.90;1.00
18281;DHT22;9266;51.132;17.062;2023-10-31T06:11:32;14.80;99.90
18281;DHT22;9266;51.132;17.062;2023-10-31T06:13:59;14.70;1.00
18281;DHT22;9266;51.132;17.062;2023-10-31T06:16:26;14.70;1.00
18281;DHT22;9266;51.132;17.062;2023-10-31T06:18:53;14.70;7.30
18281;DHT22;9266;51.132;17.062;2023-10-31T06:21:20;14.60;99.90
18281;DHT22;9266;51.132;17.062;2023-10-31T06:23:48;14.60;99.90
18281;DHT22;9266;51.132;17.062;2023-10-31T06:26:16;14.60;99.90
18281;DHT22;9266;51.132;17.062;2023-10-31T06:28:42;14.60;99.90
18281;DHT22;9266;51.132;17.062;2023-10-31T06:31:09;14.60;99.90
18281;DHT22;9266;51.132;17.062;2023-10-31T06:33:36;14.60;99.90
18281;DHT22;9266;51.132;17.062;2023-10-31T06:36:04;14.50;99.90
18281;DHT22;9266;51.132;17.062;2023-10-31T06:38:32;14.50;99.90
18281;DHT22;9266;51.132;17.062;2023-10-31T06:41:00;14.50;99.90
18281;DHT22;9266;51.132;17.062;2023-10-31T06:43:27;14.50;99.90
18281;DHT22;9266;51.132;17.062;2023-10-31T06:45:55;14.50;99.90
18281;DHT22;9266;51.132;17.062;2023-10-31T06:48:22;14.50;99.90
18281;DHT22;9266;51.132;17.062;2023-10-31T06:50:49;14.50;99.90
18281;DHT22;9266;51.132;17.062;2023-10-31T06:53:16;14.50;99.90
18281;DHT22;9266;51.132;17.062;2023-10-31T06:55:43;14.50;99.90
18281;DHT22;9266;51.132;17.062;2023-10-31T06:58:11;14.50;99.90
18281;DHT22;9266;51.132;17.062;2023-10-31T07:00:38;14.60;99.90
18281;DHT22;9266;51.132;17.062;2023-10-31T07:03:05;14.60;99.90
18281;DHT22;9266;51.132;17.062;2023-10-31T07:05:34;14.60;99.90
18281;DHT22;9266;51.132;17.062;2023-10-31T07:08:02;14.60;99.90
18281;DHT22;9266;51.132;17.062;2023-10-31T07:10:29;14.60;99.90
18281;DHT22;9266;51.132;17.062;2023-10-31T07:12:56;14.60;99.90
18281;DHT22;9266;51.132;17.062;2023-10-31T07:15:25;14.60;99.90
18281;DHT22;9266;51.132;17.062;2023-10-31T07:17:52;14.60;99.90
18281;DHT22;9266;51.132;17.062;2023-10-31T07:20:19;14.60;99.90
18281;DHT22;9266;51.132;17.062;2023-10-31T07:22:46;14.60;99.90
18281;DHT22;9266;51.132;17.062;2023-10-31T07:25:13;14.60;99.90
18281;DHT22;9266;51.132;17.062;2023-10-31T07:27:40;14.60;99.90
18281;DHT22;9266;51.132;17.062;2023-10-31T07:30:08;14.60;99.90
18281;DHT22;9266;51.132;17.062;2023-10-31T07:32:36;14.60;99.90
18281;DHT22;9266;51.132;17.062;2023-10-31T07:35:03;14.60;99.90
18281;DHT22;9266;51.132;17.062;2023-10-31T07:37:31;14.50;99.90
18281;DHT22;9266;51.132;17.062;2023-10-31T07:39:57;14.50;99.90
18281;DHT22;9266;51.132;17.062;2023-10-31T07:42:24;14.50;99.90
18281;DHT22;9266;51.132;17.062;2023-10-31T07:44:51;14.50;99.90
18281;DHT22;9266;51.132;17.062;2023-10-31T07:47:18;14.50;99.90
18281;DHT22;9266;51.132;17.062;2023-10-31T07:49:47;14.40;99.90
18281;DHT22;9266;51.132;17.062;2023-10-31T07:52:14;14.40;99.90
18281;DHT22;9266;51.132;17.062;2023-10-31T07:54:41;14.40;99.90
18281;DHT22;9266;51.132;17.062;2023-10-31T07:57:08;14.40;99.90
18281;DHT22;9266;51.132;17.062;2023-10-31T07:59:35;14.40;99.90
18281;DHT22;9266;51.132;17.062;2023-10-31T08:02:02;14.40;99.90
18281;DHT22;9266;51.132;17.062;2023-10-31T08:04:29;14.30;99.90
18281;DHT22;9266;51.132;17.062;2023-10-31T08:06:58;14.30;99.90
18281;DHT22;9266;51.132;17.062;2023-10-31T08:09:25;14.30;99.90
18281;DHT22;9266;51.132;17.062;2023-10-31T08:11:51;14.20;99.90
18281;DHT22;9266;51.132;17.062;2023-10-31T08:14:18;14.20;99.90
18281;DHT22;9266;51.132;17.062;2023-10-31T08:16:47;14.20;99.90
18281;DHT22;9266;51.132;17.062;2023-10-31T08:19:14;14.20;99.90
18281;DHT22;9266;51.132;17.062;2023-10-31T08:21:41;15.70;99.90
18281;DHT22;9266;51.132;17.062;2023-10-31T08:24:10;14.30;99.90
18281;DHT22;9266;51.132;17.062;2023-10-31T08:26:38;14.40;99.90
18281;DHT22;9266;51.132;17.062;2023-10-31T08:29:05;14.40;99.90
18281;DHT22;9266;51.132;17.062;2023-10-31T08:31:32;14.50;99.90
18281;DHT22;9266;51.132;17.062;2023-10-31T08:33:59;14.60;99.90
18281;DHT22;9266;51.132;17.062;2023-10-31T08:36:26;14.60;99.90
18281;DHT22;9266;51.132;17.062;2023-10-31T08:38:54;14.80;99.90
18281;DHT22;9266;51.132;17.062;2023-10-31T08:41:22;14.80;99.90
18281;DHT22;9266;51.132;17.062;2023-10-31T08:43:49;14.80;99.90
18281;DHT22;9266;51.132;17.062;2023-10-31T08:46:16;14.80;99.90
18281;DHT22;9266;51.132;17.062;2023-10-31T08:48:43;14.80;99.90
18281;DHT22;9266;51.132;17.062;2023-10-31T08:51:10;14.80;99.90
18281;DHT22;9266;51.132;17.062;2023-10-31T08:53:37;14.80;99.90
18281;DHT22;9266;51.132;17.062;2023-10-31T08:56:05;14.80;99.90
18281;DHT22;9266;51.132;17.062;2023-10-31T08:58:33;14.90;99.90
18281;DHT22;9266;51.132;17.062;2023-10-31T09:01:00;15.00;99.90
18281;DHT22;9266;51.132;17.062;2023-10-31T09:03:27;15.10;99.90
18281;DHT22;9266;51.132;17.062;2023-10-31T09:05:54;15.20;99.90
18281;DHT22;9266;51.132;17.062;2023-10-31T09:08:21;15.30;99.90
18281;DHT22;9266;51.132;17.062;2023-10-31T09:10:48;15.40;99.90
18281;DHT22;9266;51.132;17.062;2023-10-31T09:13:15;15.60;99.90
18281;DHT22;9266;51.132;17.062;2023-10-31T09:15:43;15.80;99.90
18281;DHT22;9266;51.132;17.062;2023-10-31T09:18:11;15.90;99.90
18281;DHT22;9266;51.132;17.062;2023-10-31T09:20:38;15.90;99.90
18281;DHT22;9266;51.132;17.062;2023-10-31T09:23:05;15.80;99.90
18281;DHT22;9266;51.132;17.062;2023-10-31T09:25:32;15.90;99.90
18281;DHT22;9266;51.132;17.062;2023-10-31T09:28:00;16.00;1.00
18281;DHT22;9266;51.132;17.062;2023-10-31T09:30:27;16.00;1.00
18281;DHT22;9266;51.132;17.062;2023-10-31T09:32:55;16.10;1.00
18281;DHT22;9266;51.132;17.062;2023-10-31T09:35:22;16.20;99.90
18281;DHT22;9266;51.132;17.062;2023-10-31T09:37:50;16.30;99.90
18281;DHT22;9266;51.132;17.062;2023-10-31T09:40:17;16.50;1.00
18281;DHT22;9266;51.132;17.062;2023-10-31T09:42:44;15.80;99.90
18281;DHT22;9266;51.132;17.062;2023-10-31T09:45:12;16.60;1.00
18281;DHT22;9266;51.132;17.062;2023-10-31T09:47:39;16.60;1.00
18281;DHT22;9266;51.132;17.062;2023-10-31T09:50:09;16.70;1.00
18281;DHT22;9266;51.132;17.062;2023-10-31T09:52:36;16.60;99.90
18281;DHT22;9266;51.132;17.062;2023-10-31T09:55:04;16.70;1.00
18281;DHT22;9266;51.132;17.062;2023-10-31T09:57:32;16.70;99.90
18281;DHT22;9266;51.132;17.062;2023-10-31T09:59:59;16.80;99.90
18281;DHT22;9266;51.132;17.062;2023-10-31T10:02:26;16.90;30.00
18281;DHT22;9266;51.132;17.062;2023-10-31T10:04:53;16.80;1.00
18281;DHT22;9266;51.132;17.062;2023-10-31T10:07:21;16.90;1.00
18281;DHT22;9266;51.132;17.062;2023-10-31T10:09:48;16.90;99.90
18281;DHT22;9266;51.132;17.062;2023-10-31T10:12:16;16.90;1.00
18281;DHT22;9266;51.132;17.062;2023-10-31T10:14:45;16.90;99.90
18281;DHT22;9266;51.132;17.062;2023-10-31T10:17:16;16.70;84.00
18281;DHT22;9266;51.132;17.062;2023-10-31T10:19:43;16.50;99.90
18281;DHT22;9266;51.132;17.062;2023-10-31T10:22:10;16.40;1.00
18281;DHT22;9266;51.132;17.062;2023-10-31T10:24:41;16.30;1.00
18281;DHT22;9266;51.132;17.062;2023-10-31T10:27:08;16.20;1.00
18281;DHT22;9266;51.132;17.062;2023-10-31T10:29:35;16.00;1.00
18281;DHT22;9266;51.132;17.062;2023-10-31T10:32:05;15.80;1.00
18281;DHT22;9266;51.132;17.062;2023-10-31T10:34:34;15.60;1.00
18281;DHT22;9266;51.132;17.062;2023-10-31T10:37:05;15.10;1.00
18281;DHT22;9266;51.132;17.062;2023-10-31T10:39:33;14.90;1.00
18281;DHT22;9266;51.132;17.062;2023-10-31T10:42:09;14.70;1.00
18281;DHT22;9266;51.132;17.062;2023-10-31T10:44:41;14.60;1.00
18281;DHT22;9266;51.132;17.062;2023-10-31T10:47:12;14.20;99.90
18281;DHT22;9266;51.132;17.062;2023-10-31T10:49:41;14.00;99.90
18281;DHT22;9266;51.132;17.062;2023-10-31T10:52:20;13.90;99.90
18281;DHT22;9266;51.132;17.062;2023-10-31T10:54:53;14.00;1.00
18281;DHT22;9266;51.132;17.062;2023-10-31T10:57:29;14.00;99.90
18281;DHT22;9266;51.132;17.062;2023-10-31T11:00:02;14.10;99.90
18281;DHT22;9266;51.132;17.062;2023-10-31T11:02:30;14.20;1.00
18281;DHT22;9266;51.132;17.062;2023-10-31T11:04:59;14.20;99.90
18281;DHT22;9266;51.132;17.062;2023-10-31T11:07:28;14.30;1.00
18281;DHT22;9266;51.132;17.062;2023-10-31T11:09:57;14.40;1.00
18281;DHT22;9266;51.132;17.062;2023-10-31T11:12:29;14.70;99.90
18281;DHT22;9266;51.132;17.062;2023-10-31T11:14:57;15.00;1.00
18281;DHT22;9266;51.132;17.062;2023-10-31T11:17:26;15.10;99.90
18281;DHT22;9266;51.132;17.062;2023-10-31T11:19:55;15.30;1.00
18281;DHT22;9266;51.132;17.062;2023-10-31T11:22:22;15.40;1.00
18281;DHT22;9266;51.132;17.062;2023-10-31T11:24:50;15.40;99.90
18281;DHT22;9266;51.132;17.062;2023-10-31T11:27:17;15.50;99.90
18281;DHT22;9266;51.132;17.062;2023-10-31T11:29:47;15.50;99.90
18281;DHT22;9266;51.132;17.062;2023-10-31T11:32:15;15.60;99.90
18281;DHT22;9266;51.132;17.062;2023-10-31T11:34:42;15.60;13.00
18281;DHT22;9266;51.132;17.062;2023-10-31T11:37:19;15.60;1.00
18281;DHT22;9266;51.132;17.062;2023-10-31T11:42:50;15.60;1.00
18281;DHT22;9266;51.132;17.062;2023-10-31T11:45:30;15.50;1.00
18281;DHT22;9266;51.132;17.062;2023-10-31T11:47:58;15.50;1.00
18281;DHT22;9266;51.132;17.062;2023-10-31T11:50:25;15.30;1.00
18281;DHT22;9266;51.132;17.062;2023-10-31T11:53:03;15.30;1.00
18281;DHT22;9266;51.132;17.062;2023-10-31T11:55:32;15.20;1.00
18281;DHT22;9266;51.132;17.062;2023-10-31T11:58:15;15.20;1.00
18281;DHT22;9266;51.132;17.062;2023-10-31T12:00:44;15.20;1.00
18281;DHT22;9266;51.132;17.062;2023-10-31T12:03:12;15.20;1.00
18281;DHT22;9266;51.132;17.062;2023-10-31T12:05:39;15.30;1.00
18281;DHT22;9266;51.132;17.062;2023-10-31T12:08:06;15.50;1.00
18281;DHT22;9266;51.132;17.062;2023-10-31T12:10:32;15.50;1.00
18281;DHT22;9266;51.132;17.062;2023-10-31T12:12:59;15.50;1.00
18281;DHT22;9266;51.132;17.062;2023-10-31T12:15:26;15.50;1.00
18281;DHT22;9266;51.132;17.062;2023-10-31T12:17:59;15.50;1.00
18281;DHT22;9266;51.132;17.062;2023-10-31T12:20:26;15.50;1.00
18281;DHT22;9266;51.132;17.062;2023-10-31T12:23:03;15.40;1.00
18281;DHT22;9266;51.132;17.062;2023-10-31T12:25:30;15.40;1.00
18281;DHT22;9266;51.132;17.062;2023-10-31T12:28:00;15.50;1.00
18281;DHT22;9266;51.132;17.062;2023-10-31T12:30:27;15.50;1.00
18281;DHT22;9266;51.132;17.062;2023-10-31T12:32:55;15.40;1.00
18281;DHT22;9266;51.132;17.062;2023-10-31T12:35:25;15.50;1.00
18281;DHT22;9266;51.132;17.062;2023-10-31T12:37:53;15.50;1.00
18281;DHT22;9266;51.132;17.062;2023-10-31T12:40:22;15.40;1.00
18281;DHT22;9266;51.132;17.062;2023-10-31T12:42:49;15.40;1.00
18281;DHT22;9266;51.132;17.062;2023-10-31T12:45:18;15.40;1.00
18281;DHT22;9266;51.132;17.062;2023-10-31T12:47:46;15.40;1.00
18281;DHT22;9266;51.132;17.062;2023-10-31T12:50:27;15.40;1.00
18281;DHT22;9266;51.132;17.062;2023-10-31T12:52:55;15.40;1.00
18281;DHT22;9266;51.132;17.062;2023-10-31T12:55:24;15.30;1.00
18281;DHT22;9266;51.132;17.062;2023-10-31T12:57:52;15.30;1.00
18281;DHT22;9266;51.132;17.062;2023-10-31T13:00:21;15.20;1.00
18281;DHT22;9266;51.132;17.062;2023-10-31T13:02:52;15.20;1.00
18281;DHT22;9266;51.132;17.062;2023-10-31T13:05:19;15.20;1.00
18281;DHT22;9266;51.132;17.062;2023-10-31T13:07:54;15.20;1.00
18281;DHT22;9266;51.132;17.062;2023-10-31T13:10:23;15.20;1.00
18281;DHT22;9266;51.132;17.062;2023-10-31T13:12:51;15.20;1.00
18281;DHT22;9266;51.132;17.062;2023-10-31T13:15:19;15.10;1.00
18281;DHT22;9266;51.132;17.062;2023-10-31T13:17:47;15.10;1.00
18281;DHT22;9266;51.132;17.062;2023-10-31T13:20:16;15.00;1.00
18281;DHT22;9266;51.132;17.062;2023-10-31T13:22:43;15.00;1.00
18281;DHT22;9266;51.132;17.062;2023-10-31T13:25:13;15.20;1.00
18281;DHT22;9266;51.132;17.062;2023-10-31T13:27:41;15.10;1.00
18281;DHT22;9266;51.132;17.062;2023-10-31T13:30:10;15.20;1.00
18281;DHT22;9266;51.132;17.062;2023-10-31T13:32:37;15.10;1.00
18281;DHT22;9266;51.132;17.062;2023-10-31T13:35:05;15.20;1.00
18281;DHT22;9266;51.132;17.062;2023-10-31T13:37:32;15.20;1.00
18281;DHT22;9266;51.132;17.062;2023-10-31T13:40:00;15.10;1.00
18281;DHT22;9266;51.132;17.062;2023-10-31T13:42:28;15.10;1.00
18281;DHT22;9266;51.132;17.062;2023-10-31T13:44:55;15.10;1.00
18281;DHT22;9266;51.132;17.062;2023-10-31T13:47:22;15.00;1.00
18281;DHT22;9266;51.132;17.062;2023-10-31T13:49:49;15.00;1.00
18281;DHT22;9266;51.132;17.062;2023-10-31T13:52:16;15.00;1.00
18281;DHT22;9266;51.132;17.062;2023-10-31T13:54:43;15.00;1.00
18281;DHT22;9266;51.132;17.062;2023-10-31T13:57:10;14.90;1.00
18281;DHT22;9266;51.132;17.062;2023-10-31T13:59:39;15.10;1.00
18281;DHT22;9266;51.132;17.062;2023-10-31T14:02:06;15.00;1.00
18281;DHT22;9266;51.132;17.062;2023-10-31T14:04:34;15.00;1.00
18281;DHT22;9266;51.132;17.062;2023-10-31T14:07:01;14.90;1.00
18281;DHT22;9266;51.132;17.062;2023-10-31T14:09:28;15.00;1.00
18281;DHT22;9266;51.132;17.062;2023-10-31T14:11:56;14.90;1.00
18281;DHT22;9266;51.132;17.062;2023-10-31T14:14:23;14.90;1.00
18281;DHT22;9266;51.132;17.062;2023-10-31T14:16:51;14.80;1.00
18281;DHT22;9266;51.132;17.062;2023-10-31T14:19:18;14.80;1.00
18281;DHT22;9266;51.132;17.062;2023-10-31T14:21:45;14.80;1.00
18281;DHT22;9266;51.132;17.062;2023-10-31T14:24:12;14.60;1.00
18281;DHT22;9266;51.132;17.062;2023-10-31T14:26:39;14.70;1.00
18281;DHT22;9266;51.132;17.062;2023-10-31T14:29:08;14.60;1.00
18281;DHT22;9266;51.132;17.062;2023-10-31T14:31:40;14.60;1.00
18281;DHT22;9266;51.132;17.062;2023-10-31T14:34:09;14.60;1.00
18281;DHT22;9266;51.132;17.062;2023-10-31T14:36:36;14.50;1.00
18281;DHT22;9266;51.132;17.062;2023-10-31T14:39:03;14.40;1.00
18281;DHT22;9266;51.132;17.062;2023-10-31T14:41:30;14.40;1.00
18281;DHT22;9266;51.132;17.062;2023-10-31T14:43:59;14.30;1.00
18281;DHT22;9266;51.132;17.062;2023-10-31T14:46:27;14.30;1.00
18281;DHT22;9266;51.132;17.062;2023-10-31T14:48:54;14.20;1.00
18281;DHT22;9266;51.132;17.062;2023-10-31T14:51:22;14.10;1.00
18281;DHT22;9266;51.132;17.062;2023-10-31T14:53:49;14.10;1.00
18281;DHT22;9266;51.132;17.062;2023-10-31T14:56:16;14.10;1.00
18281;DHT22;9266;51.132;17.062;2023-10-31T14:58:43;14.00;1.00
18281;DHT22;9266;51.132;17.062;2023-10-31T15:01:10;14.00;1.00
18281;DHT22;9266;51.132;17.062;2023-10-31T15:03:38;14.00;1.00
18281;DHT22;9266;51.132;17.062;2023-10-31T15:06:06;13.90;1.00
18281;DHT22;9266;51.132;17.062;2023-10-31T15:08:36;13.90;1.00
18281;DHT22;9266;51.132;17.062;2023-10-31T15:11:03;13.90;1.00
18281;DHT22;9266;51.132;17.062;2023-10-31T15:13:30;13.90;1.00
18281;DHT22;9266;51.132;17.062;2023-10-31T15:15:57;13.80;1.00
18281;DHT22;9266;51.132;17.062;2023-10-31T15:18:24;13.90;1.00
18281;DHT22;9266;51.132;17.062;2023-10-31T15:20:51;13.80;1.00
18281;DHT22;9266;51.132;17.062;2023-10-31T15:23:20;13.80;1.00
18281;DHT22;9266;51.132;17.062;2023-10-31T15:25:49;13.80;1.00
18281;DHT22;9266;51.132;17.062;2023-10-31T15:28:15;13.70;1.00
18281;DHT22;9266;51.132;17.062;2023-10-31T15:30:42;13.70;1.00
18281;DHT22;9266;51.132;17.062;2023-10-31T15:33:09;13.70;1.00
18281;DHT22;9266;51.132;17.062;2023-10-31T15:35:36;13.70;1.00
18281;DHT22;9266;51.132;17.062;2023-10-31T15:38:04;13.70;1.00
18281;DHT22;9266;51.132;17.062;2023-10-31T15:40:31;13.70;1.00
18281;DHT22;9266;51.132;17.062;2023-10-31T15:42:59;13.80;1.00